Cedar City, Utah Weather observations

Data are for observation ending at time listed.
 Day   Time    Ave.   Ave.  Ave.  Vector   Max.   Stn.    Total    Solar   Ave.  
  of    of     Air    Rel.  Wind   Wind    Wind   Baro.  Precip.   Rad.    Soil  
Year   Day     Temp.  Hum.  Speed  Dir.    Gust   Pres.                    Temp. 
2014   (MST)    F      %     mph   deg.    mph     mb.     in.     W/m2     F   
------------------------------------------------------------------------------
 258   23:10   67.6    32    4.4   111     11.5   827.3    0.00       0    65.1
 258   23:20   67.5    32    4.9   115     11.0   827.3    0.00       0    65.1
 258   23:30   67.1    33    5.5   114     11.3   827.3    0.00       0    65.1
 258   23:40   67.1    33    4.3   128     10.5   827.3    0.00       0    65.1
 258   23:50   66.8    33    3.8   127     10.7   827.2    0.00       0    65.0
 259    0:00   67.0    32    5.9   110     11.7   827.2    0.00       0    65.0
 259    0:10   67.2    32    6.1   108     11.2   827.2    0.00       0    65.0
 259    0:20   67.1    32    6.7   100     10.9   827.3    0.00       0    65.0
 259    0:30   67.2    32    6.2    99     11.2   827.2    0.00       0    65.0
 259    0:40   67.1    32    6.4    98     12.7   827.2    0.00       0    64.9
 259    0:50   66.8    32    4.9   104      8.8   827.2    0.00       0    64.9
 259    1:00   66.9    32    5.4   104     10.7   827.2    0.00       0    64.9
 259    1:10   67.3    31    6.1    99     12.2   827.2    0.00       0    64.8
 259    1:20   66.5    34    4.0   115      7.9   827.3    0.00       0    64.8
 259    1:30   64.9    38    4.0   123      7.5   827.2    0.00       0    64.8
 259    1:40   64.7    38    3.7   110      9.0   827.3    0.00       0    64.7
 259    1:50   64.9    38    4.1   104      7.0   827.3    0.00       0    64.7
 259    2:00   65.0    37    4.7    98      9.8   827.3    0.00       0    64.7
 259    2:10   64.8    38    4.4   104      9.3   827.3    0.00       0    64.7
 259    2:20   64.7    36    3.7   114      7.7   827.3    0.00       0    64.6
 259    2:30   64.5    36    3.6   103      6.1   827.3    0.00       0    64.6
 259    2:40   65.0    34    4.6    97      7.5   827.3    0.00       0    64.5
 259    2:50   65.3    34    5.0   100      9.9   827.2    0.00       0    64.5
 259    3:00   65.3    34    4.4   102      8.7   827.2    0.00       0    64.4
 259    3:10   65.2    34    4.6    98     10.6   827.1    0.00       0    64.3
 259    3:20   65.6    33    4.8    95      7.5   827.1    0.00       0    64.3
 259    3:30   65.5    33    5.7    93     10.2   827.0    0.00       0    64.2
 259    3:40   65.4    33    6.0    97     11.4   827.0    0.00       0    64.1
 259    3:50   65.3    33    5.7   101     10.7   827.0    0.00       0    64.0
 259    4:00   65.5    33    4.6   103      8.8   827.1    0.00       0    64.0
 259    4:10   65.2    33    3.9   104      6.4   827.1    0.00       0    63.9
 259    4:20   64.7    34    3.0   108      5.8   827.1    0.00       0    63.8
 259    4:30   64.5    34    3.7   106      7.2   827.1    0.00       0    63.8
 259    4:40   65.0    33    4.6    98      8.2   827.1    0.00       0    63.7
 259    4:50   64.8    34    4.9   100     10.0   827.1    0.00       0    63.6
 259    5:00   64.8    33    5.0   100      8.8   827.1    0.00       0    63.6
 259    5:10   64.7    33    4.9    97      8.0   827.0    0.00       0    63.5
 259    5:20   64.6    34    4.6   102      8.8   827.1    0.00       0    63.4
 259    5:30   64.6    33    4.7    98      9.1   827.1    0.00       0    63.4
 259    5:40   64.5    33    4.6    95      8.1   827.1    0.00       0    63.3
 259    5:50   64.5    34    4.3    99      8.0   827.2    0.00       0    63.2
 259    6:00   64.3    34    5.1   102      9.1   827.2    0.00       0    63.2
 259    6:10   64.1    34    4.1    99      7.7   827.3    0.00       0    63.2
 259    6:20   64.2    34    4.2    98      7.7   827.3    0.00       3    63.1
 259    6:30   64.1    34    4.6    98      8.8   827.3    0.00       7    63.0
 259    6:40   63.9    34    4.4   104      8.6   827.4    0.00      11    63.0
 259    6:50   63.7    35    4.0   106      6.6   827.5    0.00      14    63.0
 259    7:00   64.9    34    4.1   100      8.1   827.5    0.00      68    62.9
 259    7:10   65.6    33    5.4    97      9.3   827.5    0.00      87    62.9
 259    7:20   66.1    33    4.5    95      8.6   827.5    0.00     155    62.9
 259    7:30   66.9    32    4.9    97      9.9   827.5    0.00     187    62.9
 259    7:40   67.5    33    4.5   111      8.8   827.5    0.00     220    62.8
 259    7:50   68.5    32    3.2   115      7.2   827.5    0.00     254    62.9
 259    8:00   70.0    32    4.0   119      7.0   827.5    0.00     268    62.8
 259    8:10   70.8    32    3.3   111      6.0   827.6    0.00     244    62.8
 259    8:20   72.5    31    2.8   116      6.0   827.6    0.00     252    62.8
 259    8:30   74.9    29    1.8   116      4.0   827.7    0.00     305    62.8
 259    8:40   77.6    27    0.9   127      2.9   827.7    0.00     403    62.8
 259    8:50   79.6    24    0.2    20      1.5   828.0    0.00     460    62.8
 259    9:00   81.4    25    0.3   223      2.3   827.8    0.00     480    62.8
 259    9:10   80.4    27    0.9   280      3.7   828.0    0.00     510    62.7
 259    9:20   79.5    28    1.1   280      3.1   827.7    0.00     540    62.8
 259    9:30   77.7    31    2.2   294      3.9   827.9    0.00     570    62.7
 259    9:40   77.5    32    2.0   333      5.0   827.9    0.00     604    62.8
 259    9:50   78.2    30    1.7   314      3.9   827.8    0.00     620    62.8
 259   10:00   78.1    30    1.6   329      4.5   827.9    0.00     255    62.8
 259   10:10   75.5    31    1.3   355      2.8   827.8    0.00      66    62.8
 259   10:20   75.5    31    1.1    23      2.4   827.8    0.00     166    62.8
 259   10:30   75.7    31    0.9   103      2.3   827.7    0.00     149    62.8
 259   10:40   75.5    31    1.2   125      2.5   827.7    0.00     194    62.8
 259   10:50   76.0    32    0.9   157      2.9   827.7    0.00     176    62.9
 259   11:00   75.6    31    1.2   197      3.9   827.6    0.00     130    62.9
 259   11:10   75.7    32    0.7   192      3.0   827.5    0.00     219    63.0
 259   11:20   78.5    32    1.3   178      3.9   827.3    0.00     677    63.0
 259   11:30   80.4    28    0.8   136      2.7   827.4    0.00     662    63.1
 259   11:40   79.6    28    1.4   108      3.7   827.2    0.00     125    63.1
 259   11:50   78.1    31    1.4   101      3.6   827.1    0.00     533    63.1
 259   12:00   80.3    28    1.2    61      4.2   826.9    0.00     857    63.2
 259   12:10   82.6    25    1.0   215      7.0   826.7    0.00     852    63.2
 259   12:20   83.1    24    2.3   229      6.8   826.6    0.00     687    63.3
 259   12:30   83.4    25    2.2   201      9.1   826.5    0.00     693    63.3
 259   12:40   82.9    24    2.9   234      7.1   826.9    0.00     680    63.4
 259   12:50   82.6    23    2.8   231      9.6   826.5    0.00     236    63.4
 259   13:00   81.8    23    2.4   238      5.8   826.5    0.00     463    63.4
 259   13:10   82.1    24    1.9   193      7.7   826.4    0.00     281    63.5
 259   13:20   82.7    25    1.2   207      3.7   826.5    0.00     753    63.6
 259   13:30   84.8    23    2.5   212      6.6   826.4    0.00     897    63.7
 259   13:40   84.9    23    2.1   191      7.5   826.4    0.00     796    63.7
 259   13:50   84.4    20    2.4   262      8.0   826.3    0.00     849    63.8
 259   14:00   84.6    23    1.9   214      8.7   826.2    0.00     831    63.8
 259   14:10   85.6    23    1.3   174      7.0   825.8    0.00     787    64.0
 259   14:20   85.3    21    1.8   231      7.7   825.9    0.00     758    64.1
 259   14:30   84.3    22    1.5   255      7.0   826.6    0.00     731    64.1
 259   14:40   84.7    21    3.7   279     11.8   825.4    0.00     721    64.3
 259   14:50   84.3    21    0.7   274      4.7   825.3    0.00     693    64.3
 259   15:00   85.4    21    1.5   224      8.0   825.1    0.00     641    64.4
 259   15:10   85.3    22    1.7   216      6.2   825.1    0.00     432    64.5
 259   15:20   83.5    22    1.6   326      5.6   824.9    0.00     511    64.5
 259   15:30   84.0    23    0.8   242      4.7   824.8    0.00     499    64.6
 259   15:40   84.5    22    1.8   204      6.9   824.8    0.00     305    64.7
 259   15:50   84.6    22    2.2   226      6.2   824.7    0.00     122    64.7
 259   16:00   84.5    24    1.0   173      5.6   824.5    0.00     424    64.8
 259   16:10   84.7    23    2.4   137      7.4   824.4    0.00     538    64.9
 259   16:20   84.8    23    2.1   197      7.7   824.3    0.00     480    64.9
 259   16:30   84.9    22    2.0   195      6.5   824.2    0.00     436    65.0
 259   16:40   84.8    22    1.3   236      4.3   824.2    0.00     424    65.0
 259   16:50   84.5    22    2.2   106      6.5   824.1    0.00     395    65.1
 259   17:00   83.3    22    6.1    78     10.3   824.0    0.00     147    65.2
 259   17:10   83.0    22    5.1    82      9.7   824.0    0.00     289    65.2
 259   17:20   82.6    22    6.0    78     10.9   824.0    0.00     263    65.3
 259   17:30   82.6    23    3.5    88      5.9   824.0    0.00     208    65.3
 259   17:40   82.5    23    3.9    89      7.5   824.0    0.00     173    65.4
 259   17:50   82.5    22    3.7    70      7.6   824.0    0.00      85    65.4
 259   18:00   81.8    23    3.1    58      5.0   824.0    0.00      66    65.4
 259   18:10   82.0    22    2.5    65      5.3   824.0    0.00      64    65.5
 259   18:20   82.6    22    0.7    51      1.8   824.0    0.00      41    65.5
 259   18:30   82.4    24    0.8   210      2.5   824.0    0.00      19    65.6
 259   18:40   80.2    26    1.0   220      2.1   824.0    0.00       7    65.5
 259   18:50   77.5    29    0.3   163      1.5   824.1    0.00       3    65.6
 259   19:00   75.2    32    1.0   159      2.9   824.2    0.00       1    65.7
 259   19:10   73.7    33    0.7   145      2.3   824.2    0.00       0    65.7
 259   19:20   74.3    31    3.0   106      8.2   824.2    0.00       0    65.8
 259   19:30   74.0    31    3.8   119      6.9   824.3    0.00       0    65.8
 259   19:40   73.7    31    4.5   104      8.0   824.5    0.00       0    65.8
 259   19:50   73.1    32    3.8   107      7.2   824.5    0.00       0    65.8
 259   20:00   72.8    32    4.8   101      8.8   824.5    0.00       0    65.8
 259   20:10   72.8    32    4.5   104      9.0   824.6    0.00       0    65.8
 259   20:20   72.9    32    5.0   100      8.8   824.6    0.00       0    65.8
 259   20:30   73.0    31    3.9   112      7.5   824.7    0.00       0    65.8
 259   20:40   72.5    32    3.8   119      8.1   824.8    0.00       0    65.8
 259   20:50   72.3    32    4.4   110      9.7   824.9    0.00       0    65.8
 259   21:00   71.9    32    4.3   110      9.4   824.9    0.00       0    65.8
 259   21:10   71.7    32    4.1    99      7.4   824.9    0.00       0    65.8
 259   21:20   71.8    32    4.3   108      8.9   825.0    0.00       0    65.8
 259   21:30   71.9    31    3.4    83      9.5   825.1    0.00       0    65.7
 259   21:40   72.8    29    4.7    74      8.3   824.9    0.00       0    65.7
 259   21:50   72.9    28    5.7    74     11.6   825.0    0.00       0    65.7
 259   22:00   72.0    30    3.6    84      7.2   824.9    0.00       0    65.7
 259   22:10   71.6    29    4.4    99      7.6   824.8    0.00       0    65.7
 259   22:20   71.7    29    5.2    97     10.2   824.7    0.00       0    65.7
 259   22:30   71.4    29    4.7   104      9.2   824.7    0.00       0    65.7
 259   22:40   72.9    26    5.9    87     14.0   824.7    0.00       0    65.7
 259   22:50   72.9    26    3.1   106      7.7   824.6    0.00       0    65.7
 259   23:00   72.8    26    2.3   140      5.3   824.7    0.00       0    65.6

Return to Cedar City, Utah graphs page.


Western Regional Climate Center,wrcc@dri.edu